• Join FlightAware (Why Join?)
  • Login
  • US Flag 
01:22AM EDT


 

Airport Tracker/Info


-or-


 

Live Flight TrackerFlight Track Log ✈ AWE3973 ✈ 03-Oct-2013 ✈ KPVD - KPHL

Flight Track Log - Related Links

Times and Time Zones

All times are in EDT time to prevent confusion due to time zone crossing. See the AWE3973 flight status page for this flight to view local times or setup timezone preferences in your user account.

Time Position Orientation Groundspeed Altitude Reporting Facility
EDT Latitude Longitude Course Direction KTS MPH feet Rate Location/Type
09:44AM 41.6558 -71.4092 153° Southeast 196 226 2,800  Level Boston Center
09:45AM 41.5931 -71.3881 166° South 229 264 4,400 1,860 Climbing Boston Center
09:46AM 41.5516 -71.8038 166° South  Level Estimated
09:46AM 41.5117 -71.3617 166° South 275 316 6,500  Level Boston Center
09:47AM 41.5083 -71.8974 270° West  Level Estimated
09:47AM 41.4383 -71.3353 165° South 296 341 8,400  Level Boston Center
09:48AM 41.4650 -71.9909 244° Southwest  Level Estimated
09:48AM 41.3486 -71.3064 166° South 302 348 10,400  Level Boston Center
09:49AM 41.2669 -71.2914 172° South 327 376 11,600 1,260 Climbing Boston Center
09:50AM 41.2014 -71.3861 227° Southwest 293 337 13,000 1,320 Climbing Boston Center
09:51AM 41.1625 -71.4833 242° Southwest 322 371 14,300 1,440 Climbing Boston Center
09:52AM 41.1011 -71.6000 235° Southwest 350 403 15,900 1,440 Climbing Boston Center
09:53AM 41.0475 -71.6942 233° Southwest 362 417 17,300 1,200 Climbing Boston Center
09:54AM 40.9814 -71.7939 229° Southwest 362 417 18,400 1,260 Climbing Boston Center
09:55AM 40.9194 -71.9183 237° Southwest 367 422 19,900 780 Climbing Boston Center
09:56AM 40.8553 -72.0067 226° Southwest 367 422 20,000  Climbing Boston Center
09:57AM 40.7869 -72.1222 232° Southwest 384 442 20,000  Level Boston Center
09:58AM 40.7122 -72.2375 229° Southwest 407 468 20,000  Level Boston Center
09:59AM 40.6353 -72.3581 230° Southwest 417 480 20,000  Level Boston Center
10:00AM 40.5664 -72.4783 233° Southwest 423 487 20,000  Level Boston Center
10:01AM 40.4892 -72.6011 230° Southwest 429 494 20,000  Level Boston Center
10:03AM 40.3672 -72.8006 231° Southwest 421 484 20,000  Level New York Center
10:04AM 40.2942 -72.9236 232° Southwest 421 484 20,000  Level New York Center
10:05AM 40.2211 -73.0436 231° Southwest 421 484 20,000 -300 Level New York Center
10:06AM 40.1458 -73.1631 231° Southwest 421 484 19,400 -840 Descending New York Center
10:07AM 40.0792 -73.2639 229° Southwest 416 479 18,400 -960 Descending New York Center
10:07AM 39.9969 -73.3964 231° Southwest 416 479 17,500 -900 Descending New York Center
10:09AM 39.9322 -73.4969 230° Southwest 416 479 16,600 -960 Descending New York Center
10:10AM 39.8606 -73.6103 231° Southwest 416 479 15,600 -1,020 Descending New York Center
10:11AM 39.7892 -73.7208 230° Southwest 416 479 14,600 -840 Descending New York Center
10:12AM 39.7131 -73.8419 231° Southwest 411 473 14,000 -240 Descending New York Center
10:13AM 39.5764 -74.0542 230° Southwest 408 470 14,000  Level Washington Center
10:14AM 39.5239 -74.1711 240° Southwest 401 461 14,000  Level Washington Center
10:15AM 39.5275 -74.3108 272° West 372 428 14,000 -660 Level Washington Center
10:16AM 39.5289 -74.4481 271° West 381 438 12,800 -1,680 Descending Washington Center
10:17AM 39.5300 -74.5719 271° West 370 426 10,800 -1,320 Descending Washington Center
10:19AM 39.5333 -74.7667 271° West 262 302 9,000 -660 Descending Philadelphia TRACON
10:20AM 39.5333 -74.8500 270° West 260 299 9,000 -900 Level Philadelphia TRACON
10:21AM 39.5500 -74.9500 282° West 245 282 7,200 -1,500 Descending Philadelphia TRACON
10:22AM 39.5667 -75.0167 288° West 232 267 6,200 -660 Descending Philadelphia TRACON
10:23AM 39.6000 -75.0667 311° West 193 222 6,000 -660 Descending Philadelphia TRACON
10:24AM 39.6500 -75.1000 333° Northwest 197 227 4,900 -1,140 Descending Philadelphia TRACON
10:25AM 39.7000 -75.1500 322° Northwest 186 214 3,800 -1,140 Descending Philadelphia TRACON
10:26AM 39.7167 -75.2000 293° West 167 192 2,700 -1,080 Descending Philadelphia TRACON
10:27AM 39.7500 -75.1833 21° North 171 197 1,700 -600 Descending Philadelphia TRACON
10:28AM 39.8000 -75.1833 360° North 167 192 1,600 -540 Descending Philadelphia TRACON
10:29AM 39.8333 -75.2167 322° Northwest 146 168 700 -900 Descending Philadelphia TRACON